Fairview, Montana
Current Conditions -  °F | °C
As of 9:15 AM on Monday 22 Dec 2014 (Local Time) from KSDY Reporting Station
Broken Clouds Broken Clouds  
Wind Chill: 14°   Ceiling: 1700
Heat Index: 27°   Visibility: 1mi
Dew Point: 21°   Wind: 17mph
Humidity: 80%   Direction: 300°WNW
Pressure: 29.61"   Gusts: 22mph
Location:  47.86°N, 104.04°W
Report Text: KSDY 221615Z AUTO 30015G19KT 1SM BKN017 M03/M06 A2961 RMK AO1
Loading
Personal Weather Stations






























Interactive Weather Map New forecast layout! Learn more

10-Day Weather Forecast

Advertisements
Track Severe Weather on mobile